Terminal Aerodrome Forecast
Issued by NWS

Home | Current Version | Previous Version | Text Only | Print | Product List | Glossary Off
Versions: 1 2 3 4 5 6 7 8 9 10 11 12 13 14 15 16 17 18 19 20 21 22 23 24 25 26 27 28 29

000
FTUS43 KLOT 012109 AAB
TAFDPA
TAF AMD
KDPA 012109Z 0121/0218 05012KT P6SM OVC010
     FM012300 03012G16KT 4SM -SHRA BR OVC010
      TEMPO 0200/0203 3SM RA BR OVC006
     FM020500 03011KT 5SM BR OVC004
     FM021100 02009KT P6SM OVC007
     FM021500 02009KT P6SM FEW005 SCT012=

USA.gov is the U.S. government's official web portal to all federal, state and local government web resources and services.